createdAt,value
2023-11-23T00:00:33.493Z,1015.85
2023-11-23T00:01:33.565Z,1016.07
2023-11-23T00:02:33.446Z,1015.81
2023-11-23T00:03:33.420Z,1015.81
2023-11-23T00:04:33.480Z,1015.60
2023-11-23T00:05:33.427Z,1015.74
2023-11-23T00:06:33.434Z,1015.59
2023-11-23T00:07:33.411Z,1015.57
2023-11-23T00:08:33.380Z,1015.50
2023-11-23T00:09:33.371Z,1015.60
2023-11-23T00:10:34.411Z,1015.62
2023-11-23T00:11:33.349Z,1015.62
2023-11-23T00:12:33.343Z,1015.45
2023-11-23T00:13:33.387Z,1015.64
2023-11-23T00:14:34.316Z,1015.43
2023-11-23T00:15:33.308Z,1015.45
2023-11-23T00:16:33.314Z,1015.53
2023-11-23T00:17:33.264Z,1015.52
2023-11-23T00:18:33.434Z,1015.22
2023-11-23T00:19:33.264Z,1015.38
2023-11-23T00:20:33.204Z,1015.39
2023-11-23T00:21:33.219Z,1015.57
2023-11-23T00:22:33.235Z,1015.29
2023-11-23T00:23:33.233Z,1015.32
2023-11-23T00:24:33.216Z,1015.34
2023-11-23T00:25:33.156Z,1015.25
2023-11-23T00:26:33.140Z,1015.34
2023-11-23T00:27:33.179Z,1015.07
2023-11-23T00:28:33.127Z,1015.28
2023-11-23T00:29:33.107Z,1015.16
2023-11-23T00:30:33.084Z,1015.14
2023-11-23T00:31:33.085Z,1015.12
2023-11-23T00:32:33.107Z,1014.95
2023-11-23T00:33:33.246Z,1015.03
2023-11-23T00:34:33.082Z,1014.93
2023-11-23T00:35:33.147Z,1015.07
2023-11-23T00:36:33.023Z,1014.96
2023-11-23T00:37:33.004Z,1015.22
2023-11-23T00:38:33.030Z,1014.99
2023-11-23T00:39:33.002Z,1015.01
2023-11-23T00:40:33.008Z,1014.99
2023-11-23T00:41:32.962Z,1015.18
2023-11-23T00:42:33.180Z,1015.11
2023-11-23T00:43:32.969Z,1015.07
2023-11-23T00:44:32.970Z,1015.00
2023-11-23T00:45:32.899Z,1014.98
2023-11-23T00:46:32.938Z,1014.94
2023-11-23T00:47:32.936Z,1015.21
2023-11-23T00:48:32.988Z,1015.14
2023-11-23T00:49:32.868Z,1014.95
2023-11-23T00:50:33.034Z,1015.10
2023-11-23T00:51:32.840Z,1015.00
2023-11-23T00:52:32.816Z,1015.02
2023-11-23T00:53:32.836Z,1014.99
2023-11-23T00:54:32.789Z,1014.97
2023-11-23T00:55:32.787Z,1014.98
2023-11-23T00:56:32.815Z,1015.01
2023-11-23T00:57:32.859Z,1015.40
2023-11-23T00:58:32.786Z,1015.11
2023-11-23T00:59:32.721Z,1015.37
2023-11-23T01:00:32.785Z,1014.97
2023-11-23T01:01:32.975Z,1014.94
2023-11-23T01:02:32.761Z,1014.89
2023-11-23T01:03:32.771Z,1014.97
2023-11-23T01:04:32.656Z,1014.92
2023-11-23T01:05:32.673Z,1014.88
2023-11-23T01:06:32.627Z,1014.96
2023-11-23T01:07:32.611Z,1014.96
2023-11-23T01:08:32.638Z,1014.99
2023-11-23T01:09:32.581Z,1015.07
2023-11-23T01:10:32.587Z,1014.97
2023-11-23T01:11:32.591Z,1014.90
2023-11-23T01:12:32.561Z,1014.77
2023-11-23T01:13:32.621Z,1014.80
2023-11-23T01:14:32.636Z,1015.04
2023-11-23T01:15:32.584Z,1014.78
2023-11-23T01:16:32.526Z,1014.77
2023-11-23T01:17:32.528Z,1014.94
2023-11-23T01:18:32.577Z,1014.98
2023-11-23T01:19:32.656Z,1014.69
2023-11-23T01:20:32.467Z,1014.81
2023-11-23T01:21:32.605Z,1014.76
2023-11-23T01:22:32.431Z,1014.81
2023-11-23T01:23:32.450Z,1014.83
2023-11-23T01:24:32.388Z,1014.71
2023-11-23T01:25:32.410Z,1014.77
2023-11-23T01:26:32.360Z,1014.91
2023-11-23T01:27:32.387Z,1014.83
2023-11-23T01:28:32.341Z,1014.72
2023-11-23T01:29:32.325Z,1014.93
2023-11-23T01:30:32.331Z,1014.90
2023-11-23T01:31:32.324Z,1014.83
2023-11-23T01:32:32.348Z,1014.85
2023-11-23T01:33:32.431Z,1014.84
2023-11-23T01:34:32.385Z,1014.92
2023-11-23T01:35:32.310Z,1014.87
2023-11-23T01:36:32.414Z,1014.75
2023-11-23T01:37:32.255Z,1014.72
2023-11-23T01:38:32.213Z,1014.70
2023-11-23T01:39:32.410Z,1014.79
2023-11-23T01:40:32.227Z,1014.67
2023-11-23T01:41:32.202Z,1014.68
2023-11-23T01:42:32.206Z,1014.62
2023-11-23T01:43:32.160Z,1014.64
2023-11-23T01:44:32.216Z,1014.73
2023-11-23T01:45:32.142Z,1014.59
2023-11-23T01:46:32.107Z,1014.65
2023-11-23T01:47:32.166Z,1014.52
2023-11-23T01:48:32.388Z,1014.58
2023-11-23T01:49:32.081Z,1014.83
2023-11-23T01:50:32.048Z,1014.53
2023-11-23T01:51:32.045Z,1014.48
2023-11-23T01:52:32.068Z,1014.63
2023-11-23T01:53:32.059Z,1014.47
2023-11-23T01:54:32.010Z,1014.49
2023-11-23T01:55:32.016Z,1014.51
2023-11-23T01:56:32.012Z,1014.42
2023-11-23T01:57:34.673Z,1014.46
2023-11-23T01:58:31.951Z,1014.49
2023-11-23T01:59:31.936Z,1014.47
2023-11-23T02:00:31.975Z,1014.43
2023-11-23T02:01:31.948Z,1014.52
2023-11-23T02:02:31.961Z,1014.47
2023-11-23T02:03:31.995Z,1014.54
2023-11-23T02:04:32.021Z,1014.33
2023-11-23T02:05:31.874Z,1014.28
2023-11-23T02:06:31.833Z,1014.33
2023-11-23T02:07:31.850Z,1014.23
2023-11-23T02:08:31.901Z,1014.31
2023-11-23T02:09:31.816Z,1014.28
2023-11-23T02:10:31.785Z,1014.30
2023-11-23T02:11:31.776Z,1014.28
2023-11-23T02:12:31.789Z,1014.17
2023-11-23T02:13:32.001Z,1014.13
2023-11-23T02:14:31.790Z,1014.21
2023-11-23T02:15:31.807Z,1014.23
2023-11-23T02:16:31.765Z,1014.17
2023-11-23T02:17:31.736Z,1014.15
2023-11-23T02:18:32.024Z,1014.16
2023-11-23T02:19:31.684Z,1014.17
2023-11-23T02:20:31.799Z,1014.17
2023-11-23T02:21:31.930Z,1014.17
2023-11-23T02:22:31.835Z,1014.15
2023-11-23T02:23:31.628Z,1014.46
2023-11-23T02:24:31.638Z,1014.38
2023-11-23T02:25:31.607Z,1014.13
2023-11-23T02:26:31.623Z,1014.06
2023-11-23T02:27:31.672Z,1014.07
2023-11-23T02:28:31.559Z,1014.04
2023-11-23T02:29:31.770Z,1013.98
2023-11-23T02:30:31.584Z,1013.99
2023-11-23T02:31:31.572Z,1013.97
2023-11-23T02:32:31.514Z,1014.08
2023-11-23T02:33:31.556Z,1013.92
2023-11-23T02:34:31.551Z,1014.03
2023-11-23T02:35:31.470Z,1014.08
2023-11-23T02:36:31.462Z,1013.97
2023-11-23T02:37:31.442Z,1013.95
2023-11-23T02:38:31.471Z,1013.85
2023-11-23T02:39:31.423Z,1013.99
2023-11-23T02:40:31.446Z,1013.94
2023-11-23T02:41:31.444Z,1014.00
2023-11-23T02:42:31.368Z,1013.91
2023-11-23T02:43:31.363Z,1013.79
2023-11-23T02:44:31.364Z,1013.77
2023-11-23T02:45:31.475Z,1013.79
2023-11-23T02:46:31.316Z,1013.78
2023-11-23T02:47:31.384Z,1013.89
2023-11-23T02:48:31.409Z,1013.84
2023-11-23T02:49:31.320Z,1013.80
2023-11-23T02:50:31.419Z,1013.78
2023-11-23T02:51:31.303Z,1013.78
2023-11-23T02:52:31.248Z,1013.79
2023-11-23T02:53:31.362Z,1013.62
2023-11-23T02:54:31.240Z,1013.60
2023-11-23T02:55:31.344Z,1013.59
2023-11-23T02:56:31.215Z,1013.51
2023-11-23T02:57:31.193Z,1013.77
2023-11-23T02:58:31.225Z,1013.60
2023-11-23T02:59:31.197Z,1013.62
2023-11-23T03:00:31.159Z,1013.63
2023-11-23T03:01:31.215Z,1013.60
2023-11-23T03:02:31.216Z,1013.71
2023-11-23T03:03:31.195Z,1013.56
2023-11-23T03:04:31.179Z,1013.55
2023-11-23T03:05:31.144Z,1013.64
2023-11-23T03:06:31.130Z,1013.65
2023-11-23T03:07:31.051Z,1013.48
2023-11-23T03:08:31.104Z,1013.39
2023-11-23T03:09:31.261Z,1013.49
2023-11-23T03:10:31.019Z,1013.56
2023-11-23T03:11:31.034Z,1013.63
2023-11-23T03:12:31.007Z,1013.49
2023-11-23T03:13:31.060Z,1013.42
2023-11-23T03:14:31.004Z,1013.43
2023-11-23T03:15:31.034Z,1013.50
2023-11-23T03:16:31.185Z,1013.47
2023-11-23T03:17:31.064Z,1013.52
2023-11-23T03:18:31.033Z,1013.62
2023-11-23T03:19:31.036Z,1013.46
2023-11-23T03:20:30.993Z,1013.42
2023-11-23T03:21:31.088Z,1013.50
2023-11-23T03:22:30.922Z,1013.42
2023-11-23T03:23:30.954Z,1013.32
2023-11-23T03:24:30.965Z,1013.26
2023-11-23T03:25:30.967Z,1013.18
2023-11-23T03:26:31.017Z,1013.23
2023-11-23T03:27:30.848Z,1013.36
2023-11-23T03:28:31.099Z,1013.17
2023-11-23T03:29:30.961Z,1013.32
2023-11-23T03:30:30.905Z,1013.29
2023-11-23T03:31:30.744Z,1013.37
2023-11-23T03:32:31.267Z,1013.31
2023-11-23T03:33:31.055Z,1013.15
2023-11-23T03:34:30.718Z,1013.33
2023-11-23T03:35:30.719Z,1013.11
2023-11-23T03:36:30.984Z,1013.20
2023-11-23T03:37:30.699Z,1013.19
2023-11-23T03:38:30.642Z,1013.36
2023-11-23T03:39:30.634Z,1013.11
2023-11-23T03:40:30.637Z,1013.22
2023-11-23T03:41:30.743Z,1013.22
2023-11-23T03:42:30.948Z,1013.22
2023-11-23T03:43:30.580Z,1013.31
2023-11-23T03:44:30.611Z,1013.16
2023-11-23T03:45:30.663Z,1013.25
2023-11-23T03:46:30.713Z,1013.26
2023-11-23T03:47:30.566Z,1013.15
2023-11-23T03:48:30.674Z,1013.18
2023-11-23T03:49:30.520Z,1013.07
2023-11-23T03:50:30.499Z,1013.14
2023-11-23T03:51:30.734Z,1013.11
2023-11-23T03:52:30.494Z,1013.20
2023-11-23T03:53:30.494Z,1013.12
2023-11-23T03:54:30.440Z,1013.12
2023-11-23T03:55:30.433Z,1012.97
2023-11-23T03:56:30.599Z,1013.12
2023-11-23T03:57:30.431Z,1013.02
2023-11-23T03:58:30.430Z,1012.97
2023-11-23T03:59:30.382Z,1012.93
2023-11-23T04:00:30.376Z,1012.83
2023-11-23T04:01:30.401Z,1012.91
2023-11-23T04:02:30.407Z,1012.90
2023-11-23T04:03:30.372Z,1012.83
2023-11-23T04:04:30.389Z,1012.89
2023-11-23T04:05:30.329Z,1012.90
2023-11-23T04:06:30.365Z,1012.91
2023-11-23T04:07:30.304Z,1012.86
2023-11-23T04:08:30.387Z,1012.85
2023-11-23T04:09:30.247Z,1012.81
2023-11-23T04:10:30.267Z,1012.75
2023-11-23T04:11:30.300Z,1012.79
2023-11-23T04:12:30.212Z,1012.76
2023-11-23T04:13:30.233Z,1012.76
2023-11-23T04:14:30.254Z,1012.80
2023-11-23T04:15:30.199Z,1012.79
2023-11-23T04:16:30.174Z,1012.75
2023-11-23T04:17:30.217Z,1012.92
2023-11-23T04:18:30.231Z,1012.76
2023-11-23T04:19:30.149Z,1012.76
2023-11-23T04:20:33.277Z,1012.81
2023-11-23T04:21:30.150Z,1012.94
2023-11-23T04:22:30.093Z,1012.76
2023-11-23T04:23:30.078Z,1012.82
2023-11-23T04:24:30.073Z,1012.80
2023-11-23T04:25:30.035Z,1012.65
2023-11-23T04:26:30.100Z,1012.63
2023-11-23T04:27:30.022Z,1012.76
2023-11-23T04:28:30.009Z,1012.57
2023-11-23T04:29:30.038Z,1012.63
2023-11-23T04:30:30.011Z,1012.59
2023-11-23T04:31:29.979Z,1012.52
2023-11-23T04:32:29.997Z,1012.58
2023-11-23T04:33:30.047Z,1012.63
2023-11-23T04:34:30.027Z,1012.63
2023-11-23T04:35:29.934Z,1012.72
2023-11-23T04:36:29.899Z,1012.63
2023-11-23T04:37:29.908Z,1012.58
2023-11-23T04:38:30.086Z,1012.62
2023-11-23T04:39:29.924Z,1012.69
2023-11-23T04:40:29.863Z,1012.69
2023-11-23T04:41:29.901Z,1012.72
2023-11-23T04:42:29.830Z,1012.59
2023-11-23T04:43:29.870Z,1012.65
2023-11-23T04:44:29.810Z,1012.77
2023-11-23T04:45:29.951Z,1012.54
2023-11-23T04:46:29.812Z,1012.54
2023-11-23T04:47:29.915Z,1012.58
2023-11-23T04:48:29.857Z,1012.64
2023-11-23T04:49:29.764Z,1012.68
2023-11-23T04:50:29.789Z,1012.64
2023-11-23T04:51:29.853Z,1012.50
2023-11-23T04:52:29.821Z,1012.55
2023-11-23T04:53:29.686Z,1012.65
2023-11-23T04:54:29.670Z,1012.58
2023-11-23T04:55:29.666Z,1012.56
2023-11-23T04:56:29.671Z,1012.60
2023-11-23T04:57:29.687Z,1012.49
2023-11-23T04:58:29.621Z,1012.46
2023-11-23T04:59:29.602Z,1012.38
2023-11-23T05:00:29.710Z,1012.42
2023-11-23T05:01:29.572Z,1012.49
2023-11-23T05:02:29.634Z,1012.37
2023-11-23T05:03:29.648Z,1012.24
2023-11-23T05:04:29.580Z,1012.15
2023-11-23T05:05:29.594Z,1012.12
2023-11-23T05:06:29.669Z,1012.19
2023-11-23T05:07:29.548Z,1012.15
2023-11-23T05:08:29.515Z,1012.15
2023-11-23T05:09:29.476Z,1012.12
2023-11-23T05:10:29.484Z,1012.20
2023-11-23T05:11:29.921Z,1012.12
2023-11-23T05:12:29.539Z,1012.14
2023-11-23T05:13:29.443Z,1012.07
2023-11-23T05:14:29.450Z,1012.06
2023-11-23T05:15:29.404Z,1012.26
2023-11-23T05:16:29.521Z,1012.04
2023-11-23T05:17:29.387Z,1012.07
2023-11-23T05:18:29.576Z,1012.09
2023-11-23T05:19:39.602Z,1012.11
2023-11-23T05:20:30.355Z,1012.06
2023-11-23T05:21:29.377Z,1012.11
2023-11-23T05:22:29.340Z,1012.07
2023-11-23T05:23:29.521Z,1012.16
2023-11-23T05:24:29.386Z,1012.12
2023-11-23T05:25:29.276Z,1012.14
2023-11-23T05:26:29.324Z,1012.12
2023-11-23T05:27:29.286Z,1012.18
2023-11-23T05:28:29.262Z,1012.26
2023-11-23T05:29:29.311Z,1012.06
2023-11-23T05:30:29.251Z,1012.15
2023-11-23T05:31:29.251Z,1012.11
2023-11-23T05:32:29.250Z,1012.08
2023-11-23T05:33:29.281Z,1011.97
2023-11-23T05:34:29.156Z,1012.06
2023-11-23T05:35:29.199Z,1011.91
2023-11-23T05:36:29.167Z,1011.98
2023-11-23T05:37:29.113Z,1012.16
2023-11-23T05:38:29.116Z,1012.03
2023-11-23T05:39:29.165Z,1011.91
2023-11-23T05:40:29.117Z,1012.03
2023-11-23T05:41:29.074Z,1011.88
2023-11-23T05:42:29.084Z,1011.99
2023-11-23T05:43:29.044Z,1012.16
2023-11-23T05:44:29.019Z,1012.01
2023-11-23T05:45:29.142Z,1011.96
2023-11-23T05:46:29.056Z,1011.93
2023-11-23T05:47:29.008Z,1011.90
2023-11-23T05:48:29.028Z,1011.96
2023-11-23T05:49:28.971Z,1011.83
2023-11-23T05:50:28.975Z,1012.11
2023-11-23T05:51:28.972Z,1011.84
2023-11-23T05:52:28.962Z,1011.72
2023-11-23T05:53:28.916Z,1011.82
2023-11-23T05:54:29.087Z,1011.75
2023-11-23T05:55:28.893Z,1011.64
2023-11-23T05:56:28.865Z,1011.68
2023-11-23T05:57:28.878Z,1011.74
2023-11-23T05:58:28.836Z,1011.64
2023-11-23T05:59:28.845Z,1011.63
2023-11-23T06:00:28.942Z,1011.60
2023-11-23T06:01:28.826Z,1011.64
2023-11-23T06:02:28.855Z,1011.56
2023-11-23T06:03:28.889Z,1011.55
2023-11-23T06:04:28.928Z,1011.66
2023-11-23T06:05:28.898Z,1011.60
2023-11-23T06:06:28.749Z,1011.61
2023-11-23T06:07:28.805Z,1011.83
2023-11-23T06:08:28.756Z,1011.57
2023-11-23T06:09:28.749Z,1011.83
2023-11-23T06:10:28.742Z,1011.74
2023-11-23T06:11:28.672Z,1011.64
2023-11-23T06:12:28.679Z,1011.48
2023-11-23T06:13:28.831Z,1011.68
2023-11-23T06:14:28.886Z,1011.58
2023-11-23T06:15:28.768Z,1011.37
2023-11-23T06:16:28.753Z,1011.58
2023-11-23T06:17:28.699Z,1011.49
2023-11-23T06:18:28.623Z,1011.58
2023-11-23T06:19:28.575Z,1011.66
2023-11-23T06:20:28.992Z,1011.69
2023-11-23T06:21:28.540Z,1011.70
2023-11-23T06:22:28.573Z,1011.67
2023-11-23T06:23:28.642Z,1011.50
2023-11-23T06:24:28.663Z,1011.52
2023-11-23T06:25:28.546Z,1011.51
2023-11-23T06:26:28.489Z,1011.59
2023-11-23T06:27:28.521Z,1011.59
2023-11-23T06:28:28.452Z,1011.45
2023-11-23T06:29:28.449Z,1011.47
2023-11-23T06:30:28.822Z,1011.50
2023-11-23T06:31:28.447Z,1011.44
2023-11-23T06:32:28.561Z,1011.35
2023-11-23T06:33:28.585Z,1011.61
2023-11-23T06:34:28.389Z,1011.37
2023-11-23T06:35:28.408Z,1011.34
2023-11-23T06:36:28.369Z,1011.41
2023-11-23T06:37:28.507Z,1011.24
2023-11-23T06:38:28.313Z,1011.25
2023-11-23T06:39:28.741Z,1011.28
2023-11-23T06:40:28.336Z,1011.19
2023-11-23T06:41:28.415Z,1011.30
2023-11-23T06:42:28.431Z,1011.19
2023-11-23T06:43:28.285Z,1011.20
2023-11-23T06:44:28.273Z,1011.15
2023-11-23T06:45:28.457Z,1011.17
2023-11-23T06:46:28.328Z,1011.22
2023-11-23T06:47:28.220Z,1011.08
2023-11-23T06:48:28.321Z,1011.13
2023-11-23T06:49:28.205Z,1011.12
2023-11-23T06:50:28.176Z,1011.15
2023-11-23T06:51:28.227Z,1011.10
2023-11-23T06:52:28.149Z,1010.96
2023-11-23T06:53:28.158Z,1011.05
2023-11-23T06:54:28.120Z,1011.02
2023-11-23T06:55:28.447Z,1011.04
2023-11-23T06:56:28.115Z,1011.06
2023-11-23T06:57:28.205Z,1010.99
2023-11-23T06:58:28.244Z,1011.00
2023-11-23T06:59:28.042Z,1010.98
2023-11-23T07:00:28.364Z,1011.00
2023-11-23T07:01:28.092Z,1010.96
2023-11-23T07:02:28.125Z,1011.02
2023-11-23T07:03:28.099Z,1010.98
2023-11-23T07:04:28.066Z,1010.85
2023-11-23T07:05:28.011Z,1010.93
2023-11-23T07:06:28.115Z,1010.93
2023-11-23T07:07:28.041Z,1010.86
2023-11-23T07:08:27.981Z,1010.84
2023-11-23T07:09:27.993Z,1010.82
2023-11-23T07:10:28.249Z,1010.93
2023-11-23T07:11:27.936Z,1010.87
2023-11-23T07:12:28.008Z,1010.84
2023-11-23T07:13:27.882Z,1011.10
2023-11-23T07:14:27.875Z,1010.64
2023-11-23T07:15:27.999Z,1010.71
2023-11-23T07:16:27.879Z,1010.70
2023-11-23T07:17:27.863Z,1010.67
2023-11-23T07:18:27.893Z,1010.70
2023-11-23T07:19:27.876Z,1010.65
2023-11-23T07:20:27.855Z,1010.70
2023-11-23T07:21:27.887Z,1011.00
2023-11-23T07:22:27.781Z,1010.82
2023-11-23T07:23:27.781Z,1010.79
2023-11-23T07:24:32.014Z,1010.69
2023-11-23T07:25:27.865Z,1010.66
2023-11-23T07:26:27.847Z,1010.66
2023-11-23T07:27:27.726Z,1010.67
2023-11-23T07:28:27.826Z,1010.69
2023-11-23T07:29:27.704Z,1010.74
2023-11-23T07:30:27.766Z,1010.62
2023-11-23T07:31:27.654Z,1010.50
2023-11-23T07:32:27.882Z,1010.59
2023-11-23T07:33:27.680Z,1010.77
2023-11-23T07:34:27.668Z,1010.47
2023-11-23T07:35:27.674Z,1010.45
2023-11-23T07:36:27.801Z,1010.71
2023-11-23T07:37:27.586Z,1010.48
2023-11-23T07:38:27.589Z,1010.56
2023-11-23T07:39:27.629Z,1010.76
2023-11-23T07:40:27.590Z,1010.55
2023-11-23T07:41:27.513Z,1010.45
2023-11-23T07:42:27.729Z,1010.51
2023-11-23T07:43:27.545Z,1010.44
2023-11-23T07:44:27.510Z,1010.47
2023-11-23T07:45:27.547Z,1010.48
2023-11-23T07:46:27.566Z,1010.45
2023-11-23T07:47:27.462Z,1010.40
2023-11-23T07:48:27.731Z,1010.39
2023-11-23T07:49:27.476Z,1010.31
2023-11-23T07:50:27.438Z,1010.40
2023-11-23T07:51:27.460Z,1010.42
2023-11-23T07:52:27.392Z,1010.41
2023-11-23T07:53:27.413Z,1010.32
2023-11-23T07:54:27.468Z,1010.23
2023-11-23T07:55:27.371Z,1010.26
2023-11-23T07:56:27.334Z,1010.39
2023-11-23T07:57:27.517Z,1010.30
2023-11-23T07:58:27.413Z,1010.29
2023-11-23T07:59:27.306Z,1010.21
2023-11-23T08:00:27.358Z,1010.21
2023-11-23T08:01:27.346Z,1010.21
2023-11-23T08:02:27.260Z,1010.31
2023-11-23T08:03:27.433Z,1010.67
2023-11-23T08:04:27.339Z,1010.30
2023-11-23T08:05:27.282Z,1010.21
2023-11-23T08:06:27.312Z,1010.27
2023-11-23T08:07:27.190Z,1010.35
2023-11-23T08:08:27.187Z,1010.18
2023-11-23T08:09:27.243Z,1010.32
2023-11-23T08:10:27.153Z,1010.18
2023-11-23T08:11:27.277Z,1010.26
2023-11-23T08:12:27.179Z,1010.25
2023-11-23T08:13:27.111Z,1010.23
2023-11-23T08:14:27.268Z,1010.25
2023-11-23T08:15:27.196Z,1010.17
2023-11-23T08:16:27.164Z,1010.26
2023-11-23T08:17:27.116Z,1010.38
2023-11-23T08:18:36.603Z,1010.45
2023-11-23T08:19:28.150Z,1010.32
2023-11-23T08:20:27.030Z,1010.18
2023-11-23T08:21:27.173Z,1010.31
2023-11-23T08:22:27.027Z,1010.16
2023-11-23T08:23:27.025Z,1010.07
2023-11-23T08:24:27.108Z,1010.07
2023-11-23T08:25:26.998Z,1010.11
2023-11-23T08:26:27.009Z,1010.11
2023-11-23T08:27:26.993Z,1010.10
2023-11-23T08:28:26.924Z,1010.02
2023-11-23T08:29:26.904Z,1010.00
2023-11-23T08:30:27.021Z,1010.10
2023-11-23T08:31:26.892Z,1010.06
2023-11-23T08:32:27.089Z,1010.04
2023-11-23T08:33:26.962Z,1010.02
2023-11-23T08:34:26.892Z,1009.96
2023-11-23T08:35:26.927Z,1009.97
2023-11-23T08:36:26.882Z,1010.04
2023-11-23T08:37:26.845Z,1009.93
2023-11-23T08:38:26.781Z,1009.98
2023-11-23T08:39:26.828Z,1009.93
2023-11-23T08:40:26.910Z,1010.00
2023-11-23T08:41:26.759Z,1009.95
2023-11-23T08:42:26.778Z,1010.00
2023-11-23T08:43:26.772Z,1010.00
2023-11-23T08:44:26.741Z,1010.02
2023-11-23T08:45:26.814Z,1010.06
2023-11-23T08:46:26.783Z,1009.97
2023-11-23T08:47:26.757Z,1010.04
2023-11-23T08:48:26.783Z,1010.17
2023-11-23T08:49:26.654Z,1010.00
2023-11-23T08:50:26.626Z,1009.99
2023-11-23T08:51:26.657Z,1009.97
2023-11-23T08:52:26.621Z,1009.87
2023-11-23T08:53:26.664Z,1009.85
2023-11-23T08:54:26.589Z,1009.94
2023-11-23T08:55:26.588Z,1009.87
2023-11-23T08:56:26.567Z,1009.84
2023-11-23T08:57:26.620Z,1010.00
2023-11-23T08:58:26.571Z,1009.94
2023-11-23T08:59:26.576Z,1009.93
2023-11-23T09:00:26.560Z,1009.80
2023-11-23T09:01:26.490Z,1009.74
2023-11-23T09:02:26.595Z,1009.84
2023-11-23T09:03:26.663Z,1009.76
2023-11-23T09:04:33.310Z,1009.80
2023-11-23T09:05:27.778Z,1009.84
2023-11-23T09:06:26.508Z,1009.94
2023-11-23T09:07:26.452Z,1009.78
2023-11-23T09:08:26.425Z,1009.68
2023-11-23T09:09:26.497Z,1009.68
2023-11-23T09:10:26.377Z,1009.74
2023-11-23T09:11:26.398Z,1009.74
2023-11-23T09:12:26.382Z,1009.72
2023-11-23T09:13:26.360Z,1009.81
2023-11-23T09:14:26.366Z,1009.84
2023-11-23T09:15:26.330Z,1009.67
2023-11-23T09:16:26.432Z,1009.67
2023-11-23T09:17:26.318Z,1009.50
2023-11-23T09:18:26.425Z,1009.52
2023-11-23T09:19:26.314Z,1009.43
2023-11-23T09:20:26.251Z,1009.51
2023-11-23T09:21:26.279Z,1009.34
2023-11-23T09:22:26.316Z,1009.67
2023-11-23T09:23:26.220Z,1009.38
2023-11-23T09:24:26.284Z,1009.31
2023-11-23T09:25:26.217Z,1009.30
2023-11-23T09:26:26.180Z,1009.42
2023-11-23T09:27:26.284Z,1009.39
2023-11-23T09:28:26.167Z,1009.35
2023-11-23T09:29:26.132Z,1009.33
2023-11-23T09:30:26.235Z,1009.29
2023-11-23T09:31:26.176Z,1009.27
2023-11-23T09:32:26.127Z,1009.31
2023-11-23T09:33:27.632Z,1009.25
2023-11-23T09:34:26.081Z,1009.32
2023-11-23T09:35:26.112Z,1008.98
2023-11-23T09:36:28.306Z,1009.18
2023-11-23T09:37:26.043Z,1009.16
2023-11-23T09:38:26.020Z,1009.04
2023-11-23T09:39:26.129Z,1009.16
2023-11-23T09:40:26.022Z,1009.02
2023-11-23T09:41:26.016Z,1008.91
2023-11-23T09:42:26.026Z,1008.98
2023-11-23T09:43:25.961Z,1008.94
2023-11-23T09:44:25.950Z,1009.11
2023-11-23T09:45:26.694Z,1009.44
2023-11-23T09:46:25.965Z,1008.91
2023-11-23T09:47:26.018Z,1009.16
2023-11-23T09:48:25.955Z,1009.04
2023-11-23T09:49:25.916Z,1009.02
2023-11-23T09:50:25.876Z,1008.89
2023-11-23T09:51:25.884Z,1009.01
2023-11-23T09:52:25.848Z,1008.82
2023-11-23T09:53:25.869Z,1008.93
2023-11-23T09:54:25.831Z,1009.13
2023-11-23T09:55:25.846Z,1008.81
2023-11-23T09:56:25.792Z,1008.78
2023-11-23T09:57:26.089Z,1008.79
2023-11-23T09:58:25.758Z,1008.71
2023-11-23T09:59:25.763Z,1008.78
2023-11-23T10:00:25.857Z,1008.85
2023-11-23T10:01:25.769Z,1008.68
2023-11-23T10:02:25.849Z,1008.73
2023-11-23T10:03:25.823Z,1008.70
2023-11-23T10:04:25.749Z,1008.64
2023-11-23T10:05:25.883Z,1008.62
2023-11-23T10:06:25.685Z,1008.77
2023-11-23T10:07:25.679Z,1008.62
2023-11-23T10:08:25.634Z,1008.58
2023-11-23T10:09:25.835Z,1008.66
2023-11-23T10:10:25.615Z,1008.68
2023-11-23T10:11:25.655Z,1008.49
2023-11-23T10:12:25.575Z,1008.91
2023-11-23T10:13:25.831Z,1008.69
2023-11-23T10:14:25.558Z,1008.69
2023-11-23T10:15:25.730Z,1008.70
2023-11-23T10:16:25.577Z,1008.61
2023-11-23T10:17:25.521Z,1008.71
2023-11-23T10:18:25.602Z,1008.65
2023-11-23T10:19:25.615Z,1008.57
2023-11-23T10:20:25.478Z,1008.54
2023-11-23T10:21:25.500Z,1008.46
2023-11-23T10:22:25.452Z,1008.39
2023-11-23T10:23:25.461Z,1008.38
2023-11-23T10:24:25.542Z,1008.22
2023-11-23T10:25:25.543Z,1008.30
2023-11-23T10:26:25.409Z,1008.45
2023-11-23T10:27:25.448Z,1008.21
2023-11-23T10:28:25.396Z,1008.17
2023-11-23T10:29:25.338Z,1008.22
2023-11-23T10:30:25.345Z,1008.16
2023-11-23T10:31:25.341Z,1008.23
2023-11-23T10:32:25.366Z,1008.16
2023-11-23T10:33:26.010Z,1008.13
2023-11-23T10:34:25.335Z,1008.01
2023-11-23T10:35:25.343Z,1008.16
2023-11-23T10:36:25.290Z,1008.17
2023-11-23T10:37:27.508Z,1008.01
2023-11-23T10:38:35.480Z,1008.03
2023-11-23T10:39:26.345Z,1008.16
2023-11-23T10:40:25.186Z,1008.08
2023-11-23T10:41:25.247Z,1007.96
2023-11-23T10:42:25.264Z,1008.04
2023-11-23T10:43:25.215Z,1008.08
2023-11-23T10:44:25.299Z,1007.93
2023-11-23T10:45:25.880Z,1008.13
2023-11-23T10:46:25.200Z,1008.00
2023-11-23T10:47:25.310Z,1008.03
2023-11-23T10:48:25.164Z,1008.01
2023-11-23T10:49:25.096Z,1007.89
2023-11-23T10:50:25.073Z,1007.69
2023-11-23T10:51:25.088Z,1007.85
2023-11-23T10:52:25.038Z,1007.93
2023-11-23T10:53:25.085Z,1007.77
2023-11-23T10:54:25.093Z,1007.85
2023-11-23T10:55:25.176Z,1007.84
2023-11-23T10:56:24.995Z,1007.88
2023-11-23T10:57:25.895Z,1007.97
2023-11-23T10:58:25.015Z,1008.03
2023-11-23T10:59:24.984Z,1007.81
2023-11-23T11:00:25.029Z,1007.94
2023-11-23T11:01:25.050Z,1007.96
2023-11-23T11:02:24.997Z,1008.05
2023-11-23T11:03:26.215Z,1008.00
2023-11-23T11:04:24.939Z,1007.89
2023-11-23T11:05:24.883Z,1007.73
2023-11-23T11:06:25.136Z,1007.64
2023-11-23T11:07:24.843Z,1007.86
2023-11-23T11:08:24.840Z,1007.90
2023-11-23T11:09:26.588Z,1007.92
2023-11-23T11:10:24.836Z,1007.91
2023-11-23T11:11:24.882Z,1007.85
2023-11-23T11:12:24.833Z,1007.75
2023-11-23T11:13:24.796Z,1007.89
2023-11-23T11:14:24.771Z,1007.77
2023-11-23T11:15:26.500Z,1007.75
2023-11-23T11:16:24.729Z,1007.91
2023-11-23T11:17:24.731Z,1007.87
2023-11-23T11:18:24.735Z,1007.72
2023-11-23T11:19:24.762Z,1007.62
2023-11-23T11:20:24.665Z,1007.51
2023-11-23T11:21:25.277Z,1007.71
2023-11-23T11:22:24.648Z,1007.77
2023-11-23T11:23:24.637Z,1007.42
2023-11-23T11:24:24.676Z,1007.72
2023-11-23T11:25:24.829Z,1007.60
2023-11-23T11:26:24.647Z,1007.62
2023-11-23T11:27:26.166Z,1007.55
2023-11-23T11:28:24.588Z,1007.44
2023-11-23T11:29:24.598Z,1007.45
2023-11-23T11:30:24.613Z,1007.54
2023-11-23T11:31:24.640Z,1007.59
2023-11-23T11:32:24.551Z,1007.50
2023-11-23T11:33:24.628Z,1007.52
2023-11-23T11:34:24.500Z,1007.29
2023-11-23T11:35:26.187Z,1007.34
2023-11-23T11:36:24.488Z,1007.01
2023-11-23T11:37:24.526Z,1007.20
2023-11-23T11:38:24.463Z,1007.24
2023-11-23T11:39:24.486Z,1007.42
2023-11-23T11:40:24.390Z,1007.36
2023-11-23T11:41:25.735Z,1007.16
2023-11-23T11:42:24.626Z,1007.21
2023-11-23T11:43:24.385Z,1007.31
2023-11-23T11:44:24.369Z,1007.16
2023-11-23T11:45:24.384Z,1007.21
2023-11-23T11:46:24.389Z,1007.33
2023-11-23T11:47:26.267Z,1007.10
2023-11-23T11:48:24.386Z,1007.21
2023-11-23T11:49:24.280Z,1007.11
2023-11-23T11:50:24.325Z,1007.16
2023-11-23T11:51:24.417Z,1007.15
2023-11-23T11:52:24.272Z,1007.01
2023-11-23T11:53:24.232Z,1007.12
2023-11-23T11:54:24.400Z,1007.13
2023-11-23T11:55:24.229Z,1007.04
2023-11-23T11:56:24.216Z,1006.99
2023-11-23T11:57:24.362Z,1007.02
2023-11-23T11:58:24.509Z,1007.00
2023-11-23T11:59:26.165Z,1006.94
2023-11-23T12:00:24.255Z,1007.05
2023-11-23T12:01:24.159Z,1007.03
2023-11-23T12:02:24.224Z,1006.94
2023-11-23T12:03:24.222Z,1006.99
2023-11-23T12:04:24.247Z,1006.92
2023-11-23T12:05:24.836Z,1006.91